sensor_id;sensor_type;location;lat;lon;timestamp;temperature;humidity
41722;DHT22;27407;24.142;-110.310;2023-11-21T00:01:03;26.60;99.90
41722;DHT22;27407;24.142;-110.310;2023-11-21T00:03:31;26.70;99.90
41722;DHT22;27407;24.142;-110.310;2023-11-21T00:05:57;26.70;99.90
41722;DHT22;27407;24.142;-110.310;2023-11-21T00:08:24;26.50;99.90
41722;DHT22;27407;24.142;-110.310;2023-11-21T00:10:51;26.40;99.90
41722;DHT22;27407;24.142;-110.310;2023-11-21T00:13:17;26.40;99.90
41722;DHT22;27407;24.142;-110.310;2023-11-21T00:15:44;26.30;99.90
41722;DHT22;27407;24.142;-110.310;2023-11-21T00:18:10;26.10;99.90
41722;DHT22;27407;24.142;-110.310;2023-11-21T00:20:37;26.20;99.90
41722;DHT22;27407;24.142;-110.310;2023-11-21T00:23:04;26.10;99.90
41722;DHT22;27407;24.142;-110.310;2023-11-21T00:25:30;26.00;99.90
41722;DHT22;27407;24.142;-110.310;2023-11-21T00:27:57;26.10;99.90
41722;DHT22;27407;24.142;-110.310;2023-11-21T00:30:24;26.10;99.90
41722;DHT22;27407;24.142;-110.310;2023-11-21T00:32:50;26.00;99.90
41722;DHT22;27407;24.142;-110.310;2023-11-21T00:35:17;26.00;99.90
41722;DHT22;27407;24.142;-110.310;2023-11-21T00:37:44;26.00;99.90
41722;DHT22;27407;24.142;-110.310;2023-11-21T00:40:11;25.70;99.90
41722;DHT22;27407;24.142;-110.310;2023-11-21T00:42:38;25.60;99.90
41722;DHT22;27407;24.142;-110.310;2023-11-21T00:45:05;25.80;99.90
41722;DHT22;27407;24.142;-110.310;2023-11-21T00:47:32;25.60;99.90
41722;DHT22;27407;24.142;-110.310;2023-11-21T00:49:59;25.50;99.90
41722;DHT22;27407;24.142;-110.310;2023-11-21T00:52:26;25.60;99.90
41722;DHT22;27407;24.142;-110.310;2023-11-21T00:54:52;25.60;99.90
41722;DHT22;27407;24.142;-110.310;2023-11-21T00:57:19;25.50;99.90
41722;DHT22;27407;24.142;-110.310;2023-11-21T00:59:46;25.30;99.90
41722;DHT22;27407;24.142;-110.310;2023-11-21T01:02:12;25.50;99.90
41722;DHT22;27407;24.142;-110.310;2023-11-21T01:04:39;25.50;99.90
41722;DHT22;27407;24.142;-110.310;2023-11-21T01:07:06;25.40;99.90
41722;DHT22;27407;24.142;-110.310;2023-11-21T01:09:33;25.60;99.90
41722;DHT22;27407;24.142;-110.310;2023-11-21T01:11:59;25.50;99.90
41722;DHT22;27407;24.142;-110.310;2023-11-21T01:14:27;25.30;99.90
41722;DHT22;27407;24.142;-110.310;2023-11-21T01:16:54;25.30;99.90
41722;DHT22;27407;24.142;-110.310;2023-11-21T01:19:21;25.30;99.90
41722;DHT22;27407;24.142;-110.310;2023-11-21T01:21:47;25.30;99.90
41722;DHT22;27407;24.142;-110.310;2023-11-21T01:24:14;25.40;99.90
41722;DHT22;27407;24.142;-110.310;2023-11-21T01:26:40;25.20;99.90
41722;DHT22;27407;24.142;-110.310;2023-11-21T01:29:07;25.10;99.90
41722;DHT22;27407;24.142;-110.310;2023-11-21T01:31:34;25.10;99.90
41722;DHT22;27407;24.142;-110.310;2023-11-21T01:34:00;24.90;99.90
41722;DHT22;27407;24.142;-110.310;2023-11-21T01:36:31;25.00;99.90
41722;DHT22;27407;24.142;-110.310;2023-11-21T01:38:59;25.00;99.90
41722;DHT22;27407;24.142;-110.310;2023-11-21T01:41:27;24.90;99.90
41722;DHT22;27407;24.142;-110.310;2023-11-21T01:43:55;25.10;99.90
41722;DHT22;27407;24.142;-110.310;2023-11-21T01:46:23;25.00;99.90
41722;DHT22;27407;24.142;-110.310;2023-11-21T01:48:50;24.80;99.90
41722;DHT22;27407;24.142;-110.310;2023-11-21T01:51:17;24.80;99.90
41722;DHT22;27407;24.142;-110.310;2023-11-21T01:53:45;24.80;99.90
41722;DHT22;27407;24.142;-110.310;2023-11-21T01:56:13;24.80;99.90
41722;DHT22;27407;24.142;-110.310;2023-11-21T01:58:40;24.70;99.90
41722;DHT22;27407;24.142;-110.310;2023-11-21T02:01:07;24.80;99.90
41722;DHT22;27407;24.142;-110.310;2023-11-21T02:03:35;24.80;99.90
41722;DHT22;27407;24.142;-110.310;2023-11-21T02:06:02;24.90;99.90
41722;DHT22;27407;24.142;-110.310;2023-11-21T02:08:28;25.00;99.90
41722;DHT22;27407;24.142;-110.310;2023-11-21T02:10:55;24.80;99.90
41722;DHT22;27407;24.142;-110.310;2023-11-21T02:13:23;24.80;99.90
41722;DHT22;27407;24.142;-110.310;2023-11-21T02:15:50;24.90;99.90
41722;DHT22;27407;24.142;-110.310;2023-11-21T02:18:18;24.80;99.90
41722;DHT22;27407;24.142;-110.310;2023-11-21T02:20:45;24.80;99.90
41722;DHT22;27407;24.142;-110.310;2023-11-21T02:23:12;24.80;99.90
41722;DHT22;27407;24.142;-110.310;2023-11-21T02:25:39;24.70;99.90
41722;DHT22;27407;24.142;-110.310;2023-11-21T02:28:06;24.60;99.90
41722;DHT22;27407;24.142;-110.310;2023-11-21T02:30:32;24.70;99.90
41722;DHT22;27407;24.142;-110.310;2023-11-21T02:33:00;24.70;99.90
41722;DHT22;27407;24.142;-110.310;2023-11-21T02:35:27;24.70;99.90
41722;DHT22;27407;24.142;-110.310;2023-11-21T02:37:54;24.80;99.90
41722;DHT22;27407;24.142;-110.310;2023-11-21T02:40:21;24.80;99.90
41722;DHT22;27407;24.142;-110.310;2023-11-21T02:42:48;24.60;99.90
41722;DHT22;27407;24.142;-110.310;2023-11-21T02:45:18;24.60;99.90
41722;DHT22;27407;24.142;-110.310;2023-11-21T02:47:47;24.50;99.90
41722;DHT22;27407;24.142;-110.310;2023-11-21T02:50:15;24.50;99.90
41722;DHT22;27407;24.142;-110.310;2023-11-21T02:52:42;24.70;99.90
41722;DHT22;27407;24.142;-110.310;2023-11-21T02:55:09;24.70;99.90
41722;DHT22;27407;24.142;-110.310;2023-11-21T02:57:35;24.60;99.90
41722;DHT22;27407;24.142;-110.310;2023-11-21T03:00:02;24.40;99.90
41722;DHT22;27407;24.142;-110.310;2023-11-21T03:02:29;24.40;99.90
41722;DHT22;27407;24.142;-110.310;2023-11-21T03:04:56;24.50;99.90
41722;DHT22;27407;24.142;-110.310;2023-11-21T03:07:22;24.60;99.90
41722;DHT22;27407;24.142;-110.310;2023-11-21T03:09:51;24.50;99.90
41722;DHT22;27407;24.142;-110.310;2023-11-21T03:12:18;24.40;99.90
41722;DHT22;27407;24.142;-110.310;2023-11-21T03:14:45;24.40;99.90
41722;DHT22;27407;24.142;-110.310;2023-11-21T03:17:12;24.50;99.90
41722;DHT22;27407;24.142;-110.310;2023-11-21T03:19:43;24.50;99.90
41722;DHT22;27407;24.142;-110.310;2023-11-21T03:22:10;24.40;99.90
41722;DHT22;27407;24.142;-110.310;2023-11-21T03:24:37;24.30;99.90
41722;DHT22;27407;24.142;-110.310;2023-11-21T03:27:04;24.40;99.90
41722;DHT22;27407;24.142;-110.310;2023-11-21T03:29:31;24.20;99.90
41722;DHT22;27407;24.142;-110.310;2023-11-21T03:31:58;24.20;99.90
41722;DHT22;27407;24.142;-110.310;2023-11-21T03:34:26;24.20;99.90
41722;DHT22;27407;24.142;-110.310;2023-11-21T03:36:53;24.20;99.90
41722;DHT22;27407;24.142;-110.310;2023-11-21T03:39:23;24.30;99.90
41722;DHT22;27407;24.142;-110.310;2023-11-21T03:41:51;24.30;99.90
41722;DHT22;27407;24.142;-110.310;2023-11-21T03:44:18;24.20;99.90
41722;DHT22;27407;24.142;-110.310;2023-11-21T03:46:45;24.00;99.90
41722;DHT22;27407;24.142;-110.310;2023-11-21T03:49:11;24.00;99.90
41722;DHT22;27407;24.142;-110.310;2023-11-21T03:51:38;24.00;99.90
41722;DHT22;27407;24.142;-110.310;2023-11-21T03:54:04;24.10;99.90
41722;DHT22;27407;24.142;-110.310;2023-11-21T03:56:32;24.00;99.90
41722;DHT22;27407;24.142;-110.310;2023-11-21T03:58:59;24.00;99.90
41722;DHT22;27407;24.142;-110.310;2023-11-21T04:01:25;24.00;99.90
41722;DHT22;27407;24.142;-110.310;2023-11-21T04:03:52;23.90;99.90
41722;DHT22;27407;24.142;-110.310;2023-11-21T04:06:19;23.90;99.90
41722;DHT22;27407;24.142;-110.310;2023-11-21T04:08:46;23.90;99.90
41722;DHT22;27407;24.142;-110.310;2023-11-21T04:11:13;23.80;99.90
41722;DHT22;27407;24.142;-110.310;2023-11-21T04:13:40;24.00;99.90
41722;DHT22;27407;24.142;-110.310;2023-11-21T04:16:08;23.90;99.90
41722;DHT22;27407;24.142;-110.310;2023-11-21T04:18:38;23.80;99.90
41722;DHT22;27407;24.142;-110.310;2023-11-21T04:21:06;23.90;99.90
41722;DHT22;27407;24.142;-110.310;2023-11-21T04:23:34;23.80;99.90
41722;DHT22;27407;24.142;-110.310;2023-11-21T04:26:01;23.70;99.90
41722;DHT22;27407;24.142;-110.310;2023-11-21T04:28:29;23.60;99.90
41722;DHT22;27407;24.142;-110.310;2023-11-21T04:30:55;23.60;99.90
41722;DHT22;27407;24.142;-110.310;2023-11-21T04:33:22;23.60;99.90
41722;DHT22;27407;24.142;-110.310;2023-11-21T04:35:49;23.60;99.90
41722;DHT22;27407;24.142;-110.310;2023-11-21T04:38:15;23.70;99.90
41722;DHT22;27407;24.142;-110.310;2023-11-21T04:40:42;23.60;99.90
41722;DHT22;27407;24.142;-110.310;2023-11-21T04:43:09;23.70;99.90
41722;DHT22;27407;24.142;-110.310;2023-11-21T04:45:35;23.60;99.90
41722;DHT22;27407;24.142;-110.310;2023-11-21T04:48:02;23.60;99.90
41722;DHT22;27407;24.142;-110.310;2023-11-21T04:50:29;23.70;99.90
41722;DHT22;27407;24.142;-110.310;2023-11-21T04:52:56;23.70;99.90
41722;DHT22;27407;24.142;-110.310;2023-11-21T04:55:22;23.70;99.90
41722;DHT22;27407;24.142;-110.310;2023-11-21T04:57:49;23.60;99.90
41722;DHT22;27407;24.142;-110.310;2023-11-21T05:00:16;23.70;99.90
41722;DHT22;27407;24.142;-110.310;2023-11-21T05:02:43;23.70;99.90
41722;DHT22;27407;24.142;-110.310;2023-11-21T05:05:10;23.60;99.90
41722;DHT22;27407;24.142;-110.310;2023-11-21T05:07:37;23.60;99.90
41722;DHT22;27407;24.142;-110.310;2023-11-21T05:10:05;23.50;99.90
41722;DHT22;27407;24.142;-110.310;2023-11-21T05:12:38;23.60;99.90
41722;DHT22;27407;24.142;-110.310;2023-11-21T05:15:05;23.50;99.90
41722;DHT22;27407;24.142;-110.310;2023-11-21T05:17:39;23.50;99.90
41722;DHT22;27407;24.142;-110.310;2023-11-21T05:20:13;23.50;99.90
41722;DHT22;27407;24.142;-110.310;2023-11-21T05:22:40;23.60;99.90
41722;DHT22;27407;24.142;-110.310;2023-11-21T05:25:08;23.40;99.90
41722;DHT22;27407;24.142;-110.310;2023-11-21T05:27:35;23.40;99.90
41722;DHT22;27407;24.142;-110.310;2023-11-21T05:30:03;23.40;99.90
41722;DHT22;27407;24.142;-110.310;2023-11-21T05:32:35;23.30;99.90
41722;DHT22;27407;24.142;-110.310;2023-11-21T05:35:02;23.30;99.90
41722;DHT22;27407;24.142;-110.310;2023-11-21T05:37:28;23.30;99.90
41722;DHT22;27407;24.142;-110.310;2023-11-21T05:39:56;23.30;99.90
41722;DHT22;27407;24.142;-110.310;2023-11-21T05:42:23;23.20;99.90
41722;DHT22;27407;24.142;-110.310;2023-11-21T05:44:49;23.20;99.90
41722;DHT22;27407;24.142;-110.310;2023-11-21T05:47:16;23.20;99.90
41722;DHT22;27407;24.142;-110.310;2023-11-21T05:49:44;23.20;99.90
41722;DHT22;27407;24.142;-110.310;2023-11-21T14:41:03;20.80;99.90
41722;DHT22;27407;24.142;-110.310;2023-11-21T14:43:35;20.90;99.90
41722;DHT22;27407;24.142;-110.310;2023-11-21T14:46:03;21.00;99.90
41722;DHT22;27407;24.142;-110.310;2023-11-21T14:48:32;21.10;99.90
41722;DHT22;27407;24.142;-110.310;2023-11-21T14:53:55;21.30;99.90
41722;DHT22;27407;24.142;-110.310;2023-11-21T14:56:28;21.40;99.90
41722;DHT22;27407;24.142;-110.310;2023-11-21T14:59:00;21.50;99.90
41722;DHT22;27407;24.142;-110.310;2023-11-21T15:01:35;21.60;99.90
41722;DHT22;27407;24.142;-110.310;2023-11-21T15:04:12;21.80;99.90
41722;DHT22;27407;24.142;-110.310;2023-11-21T15:06:52;21.90;99.90
41722;DHT22;27407;24.142;-110.310;2023-11-21T15:09:22;21.90;99.90
41722;DHT22;27407;24.142;-110.310;2023-11-21T15:12:01;22.10;99.90
41722;DHT22;27407;24.142;-110.310;2023-11-21T15:14:51;22.20;99.90
41722;DHT22;27407;24.142;-110.310;2023-11-21T15:17:20;22.30;99.90
41722;DHT22;27407;24.142;-110.310;2023-11-21T15:19:58;22.40;99.90
41722;DHT22;27407;24.142;-110.310;2023-11-21T15:22:26;22.50;99.90
41722;DHT22;27407;24.142;-110.310;2023-11-21T15:24:54;22.60;99.90
41722;DHT22;27407;24.142;-110.310;2023-11-21T15:27:22;22.70;99.90
41722;DHT22;27407;24.142;-110.310;2023-11-21T15:29:48;22.80;99.90
41722;DHT22;27407;24.142;-110.310;2023-11-21T15:32:16;22.90;99.90
41722;DHT22;27407;24.142;-110.310;2023-11-21T15:34:42;23.00;99.90
41722;DHT22;27407;24.142;-110.310;2023-11-21T15:37:12;23.10;99.90
41722;DHT22;27407;24.142;-110.310;2023-11-21T15:39:39;23.20;99.90
41722;DHT22;27407;24.142;-110.310;2023-11-21T15:42:06;23.30;99.90
41722;DHT22;27407;24.142;-110.310;2023-11-21T15:44:36;23.40;99.90
41722;DHT22;27407;24.142;-110.310;2023-11-21T15:47:03;23.50;99.90
41722;DHT22;27407;24.142;-110.310;2023-11-21T15:49:32;23.60;99.90
41722;DHT22;27407;24.142;-110.310;2023-11-21T15:52:02;23.70;99.90
41722;DHT22;27407;24.142;-110.310;2023-11-21T15:54:29;23.90;99.90
41722;DHT22;27407;24.142;-110.310;2023-11-21T15:56:56;24.00;99.90
41722;DHT22;27407;24.142;-110.310;2023-11-21T15:59:25;24.00;99.90
41722;DHT22;27407;24.142;-110.310;2023-11-21T16:01:59;24.10;99.90
41722;DHT22;27407;24.142;-110.310;2023-11-21T16:04:30;24.20;99.90
41722;DHT22;27407;24.142;-110.310;2023-11-21T16:06:57;24.30;99.90
41722;DHT22;27407;24.142;-110.310;2023-11-21T16:09:25;24.40;99.90
41722;DHT22;27407;24.142;-110.310;2023-11-21T16:11:59;24.40;99.90
41722;DHT22;27407;24.142;-110.310;2023-11-21T16:14:29;24.50;99.90
41722;DHT22;27407;24.142;-110.310;2023-11-21T16:17:02;24.60;99.90
41722;DHT22;27407;24.142;-110.310;2023-11-21T16:19:29;24.90;99.90
41722;DHT22;27407;24.142;-110.310;2023-11-21T16:21:56;24.90;99.90
41722;DHT22;27407;24.142;-110.310;2023-11-21T16:24:22;25.10;99.90
41722;DHT22;27407;24.142;-110.310;2023-11-21T16:26:50;25.30;99.90
41722;DHT22;27407;24.142;-110.310;2023-11-21T16:29:16;25.30;99.90
41722;DHT22;27407;24.142;-110.310;2023-11-21T16:31:43;25.50;99.90
41722;DHT22;27407;24.142;-110.310;2023-11-21T16:34:15;25.60;99.90
41722;DHT22;27407;24.142;-110.310;2023-11-21T16:36:43;25.50;99.90
41722;DHT22;27407;24.142;-110.310;2023-11-21T16:39:10;25.40;99.90
41722;DHT22;27407;24.142;-110.310;2023-11-21T16:41:40;25.40;99.90
41722;DHT22;27407;24.142;-110.310;2023-11-21T16:44:16;25.20;99.90
41722;DHT22;27407;24.142;-110.310;2023-11-21T16:46:52;25.20;99.90
41722;DHT22;27407;24.142;-110.310;2023-11-21T16:49:20;25.10;99.90
41722;DHT22;27407;24.142;-110.310;2023-11-21T16:51:47;25.20;99.90
41722;DHT22;27407;24.142;-110.310;2023-11-21T16:54:16;25.30;99.90
41722;DHT22;27407;24.142;-110.310;2023-11-21T16:56:45;25.30;99.90
41722;DHT22;27407;24.142;-110.310;2023-11-21T16:59:13;25.40;99.90
41722;DHT22;27407;24.142;-110.310;2023-11-21T17:01:43;25.70;99.90
41722;DHT22;27407;24.142;-110.310;2023-11-21T17:04:13;25.90;99.90
41722;DHT22;27407;24.142;-110.310;2023-11-21T17:06:49;26.00;99.90
41722;DHT22;27407;24.142;-110.310;2023-11-21T17:09:16;25.80;99.90
41722;DHT22;27407;24.142;-110.310;2023-11-21T17:11:49;25.60;99.90
41722;DHT22;27407;24.142;-110.310;2023-11-21T17:14:17;25.50;99.90
41722;DHT22;27407;24.142;-110.310;2023-11-21T17:16:44;25.60;99.90
41722;DHT22;27407;24.142;-110.310;2023-11-21T17:19:11;26.00;99.90
41722;DHT22;27407;24.142;-110.310;2023-11-21T17:21:38;25.70;99.90
41722;DHT22;27407;24.142;-110.310;2023-11-21T17:24:05;25.50;99.90
41722;DHT22;27407;24.142;-110.310;2023-11-21T17:26:32;25.60;99.90
41722;DHT22;27407;24.142;-110.310;2023-11-21T17:29:00;26.00;99.90
41722;DHT22;27407;24.142;-110.310;2023-11-21T17:31:27;26.20;99.90
41722;DHT22;27407;24.142;-110.310;2023-11-21T17:33:55;26.40;99.90
41722;DHT22;27407;24.142;-110.310;2023-11-21T17:36:22;26.60;99.90
41722;DHT22;27407;24.142;-110.310;2023-11-21T17:38:51;26.70;99.90
41722;DHT22;27407;24.142;-110.310;2023-11-21T17:41:20;26.60;99.90
41722;DHT22;27407;24.142;-110.310;2023-11-21T17:43:50;26.50;99.90
41722;DHT22;27407;24.142;-110.310;2023-11-21T17:46:20;26.40;99.90
41722;DHT22;27407;24.142;-110.310;2023-11-21T17:48:50;26.40;99.90
41722;DHT22;27407;24.142;-110.310;2023-11-21T17:51:20;26.60;99.90
41722;DHT22;27407;24.142;-110.310;2023-11-21T17:53:47;26.90;99.90
41722;DHT22;27407;24.142;-110.310;2023-11-21T17:56:16;27.10;99.90
41722;DHT22;27407;24.142;-110.310;2023-11-21T17:58:43;27.00;99.90
41722;DHT22;27407;24.142;-110.310;2023-11-21T18:01:10;27.20;99.90
41722;DHT22;27407;24.142;-110.310;2023-11-21T18:03:37;27.40;99.90
41722;DHT22;27407;24.142;-110.310;2023-11-21T18:06:05;27.50;99.90
41722;DHT22;27407;24.142;-110.310;2023-11-21T18:08:31;27.60;99.90
41722;DHT22;27407;24.142;-110.310;2023-11-21T18:10:58;27.60;99.90
41722;DHT22;27407;24.142;-110.310;2023-11-21T18:13:25;27.50;99.90
41722;DHT22;27407;24.142;-110.310;2023-11-21T18:15:52;27.70;99.90
41722;DHT22;27407;24.142;-110.310;2023-11-21T18:18:20;27.90;99.90
41722;DHT22;27407;24.142;-110.310;2023-11-21T18:20:46;27.80;99.90
41722;DHT22;27407;24.142;-110.310;2023-11-21T18:23:13;27.60;99.90
41722;DHT22;27407;24.142;-110.310;2023-11-21T18:25:40;27.30;99.90
41722;DHT22;27407;24.142;-110.310;2023-11-21T18:28:07;27.50;99.90
41722;DHT22;27407;24.142;-110.310;2023-11-21T18:30:34;27.60;99.90
41722;DHT22;27407;24.142;-110.310;2023-11-21T18:33:01;27.70;99.90
41722;DHT22;27407;24.142;-110.310;2023-11-21T18:35:28;27.90;99.90
41722;DHT22;27407;24.142;-110.310;2023-11-21T18:37:55;27.70;99.90
41722;DHT22;27407;24.142;-110.310;2023-11-21T18:40:22;28.30;99.90
41722;DHT22;27407;24.142;-110.310;2023-11-21T18:42:48;28.30;99.90
41722;DHT22;27407;24.142;-110.310;2023-11-21T18:45:15;28.40;99.90
41722;DHT22;27407;24.142;-110.310;2023-11-21T18:47:42;28.50;99.90
41722;DHT22;27407;24.142;-110.310;2023-11-21T18:50:09;28.30;99.90
41722;DHT22;27407;24.142;-110.310;2023-11-21T18:52:43;28.50;99.90
41722;DHT22;27407;24.142;-110.310;2023-11-21T18:55:11;28.50;99.90
41722;DHT22;27407;24.142;-110.310;2023-11-21T18:57:38;28.90;99.90
41722;DHT22;27407;24.142;-110.310;2023-11-21T19:00:06;29.10;99.90
41722;DHT22;27407;24.142;-110.310;2023-11-21T19:02:38;29.50;99.90
41722;DHT22;27407;24.142;-110.310;2023-11-21T19:05:09;29.50;99.90
41722;DHT22;27407;24.142;-110.310;2023-11-21T19:07:37;29.60;99.90
41722;DHT22;27407;24.142;-110.310;2023-11-21T19:10:04;29.90;99.90
41722;DHT22;27407;24.142;-110.310;2023-11-21T19:12:32;29.50;99.90
41722;DHT22;27407;24.142;-110.310;2023-11-21T19:15:01;29.50;99.90
41722;DHT22;27407;24.142;-110.310;2023-11-21T19:17:29;29.80;99.90
41722;DHT22;27407;24.142;-110.310;2023-11-21T19:19:57;30.20;99.90
41722;DHT22;27407;24.142;-110.310;2023-11-21T19:22:24;30.80;99.90
41722;DHT22;27407;24.142;-110.310;2023-11-21T19:24:51;30.50;99.90
41722;DHT22;27407;24.142;-110.310;2023-11-21T19:27:18;29.90;99.90
41722;DHT22;27407;24.142;-110.310;2023-11-21T19:29:54;29.90;99.90
41722;DHT22;27407;24.142;-110.310;2023-11-21T19:32:20;29.30;99.90
41722;DHT22;27407;24.142;-110.310;2023-11-21T19:34:47;29.50;99.90
41722;DHT22;27407;24.142;-110.310;2023-11-21T19:37:13;30.20;99.90
41722;DHT22;27407;24.142;-110.310;2023-11-21T19:39:40;30.30;99.90
41722;DHT22;27407;24.142;-110.310;2023-11-21T19:42:07;30.40;99.90
41722;DHT22;27407;24.142;-110.310;2023-11-21T19:44:34;30.40;99.90
41722;DHT22;27407;24.142;-110.310;2023-11-21T19:47:07;30.30;99.90
41722;DHT22;27407;24.142;-110.310;2023-11-21T19:49:34;30.30;99.90
41722;DHT22;27407;24.142;-110.310;2023-11-21T19:52:01;30.20;99.90
41722;DHT22;27407;24.142;-110.310;2023-11-21T19:54:27;30.50;99.90
41722;DHT22;27407;24.142;-110.310;2023-11-21T19:56:55;30.10;99.90
41722;DHT22;27407;24.142;-110.310;2023-11-21T19:59:21;30.00;99.90
41722;DHT22;27407;24.142;-110.310;2023-11-21T20:01:49;30.30;99.90
41722;DHT22;27407;24.142;-110.310;2023-11-21T20:04:16;30.60;99.90
41722;DHT22;27407;24.142;-110.310;2023-11-21T20:06:43;31.10;99.90
41722;DHT22;27407;24.142;-110.310;2023-11-21T20:09:10;30.90;99.90
41722;DHT22;27407;24.142;-110.310;2023-11-21T20:11:37;31.00;99.90
41722;DHT22;27407;24.142;-110.310;2023-11-21T20:14:04;31.60;99.90
41722;DHT22;27407;24.142;-110.310;2023-11-21T20:16:31;32.40;99.90
41722;DHT22;27407;24.142;-110.310;2023-11-21T20:19:08;32.30;99.90
41722;DHT22;27407;24.142;-110.310;2023-11-21T20:21:36;32.50;99.90
41722;DHT22;27407;24.142;-110.310;2023-11-21T20:24:02;33.00;99.90
41722;DHT22;27407;24.142;-110.310;2023-11-21T20:26:29;33.50;99.90
41722;DHT22;27407;24.142;-110.310;2023-11-21T20:28:57;33.40;99.90
41722;DHT22;27407;24.142;-110.310;2023-11-21T20:31:24;33.30;99.90
41722;DHT22;27407;24.142;-110.310;2023-11-21T20:33:51;33.40;99.90
41722;DHT22;27407;24.142;-110.310;2023-11-21T20:36:18;33.30;99.90
41722;DHT22;27407;24.142;-110.310;2023-11-21T20:38:46;33.40;99.90
41722;DHT22;27407;24.142;-110.310;2023-11-21T20:41:12;33.30;99.90
41722;DHT22;27407;24.142;-110.310;2023-11-21T20:43:40;32.50;99.90
41722;DHT22;27407;24.142;-110.310;2023-11-21T20:46:06;32.10;99.90
41722;DHT22;27407;24.142;-110.310;2023-11-21T20:48:33;32.30;99.90
41722;DHT22;27407;24.142;-110.310;2023-11-21T20:51:00;32.10;99.90
41722;DHT22;27407;24.142;-110.310;2023-11-21T20:53:26;32.50;99.90
41722;DHT22;27407;24.142;-110.310;2023-11-21T20:55:53;32.00;99.90
41722;DHT22;27407;24.142;-110.310;2023-11-21T20:58:21;31.30;99.90
41722;DHT22;27407;24.142;-110.310;2023-11-21T21:00:48;31.20;99.90
41722;DHT22;27407;24.142;-110.310;2023-11-21T21:03:15;31.10;99.90
41722;DHT22;27407;24.142;-110.310;2023-11-21T21:05:41;30.50;99.90
41722;DHT22;27407;24.142;-110.310;2023-11-21T21:08:08;30.60;99.90
41722;DHT22;27407;24.142;-110.310;2023-11-21T21:10:35;30.70;99.90
41722;DHT22;27407;24.142;-110.310;2023-11-21T21:13:01;31.10;99.90
41722;DHT22;27407;24.142;-110.310;2023-11-21T21:15:28;31.10;99.90
41722;DHT22;27407;24.142;-110.310;2023-11-21T21:17:55;31.20;99.90
41722;DHT22;27407;24.142;-110.310;2023-11-21T21:20:23;31.00;99.90
41722;DHT22;27407;24.142;-110.310;2023-11-21T21:22:50;31.00;99.90
41722;DHT22;27407;24.142;-110.310;2023-11-21T21:25:19;31.10;99.90
41722;DHT22;27407;24.142;-110.310;2023-11-21T21:27:45;31.00;99.90
41722;DHT22;27407;24.142;-110.310;2023-11-21T21:30:14;30.60;99.90
41722;DHT22;27407;24.142;-110.310;2023-11-21T21:32:41;30.10;99.90
41722;DHT22;27407;24.142;-110.310;2023-11-21T21:35:08;30.30;99.90
41722;DHT22;27407;24.142;-110.310;2023-11-21T21:37:34;30.20;99.90
41722;DHT22;27407;24.142;-110.310;2023-11-21T21:40:01;30.30;99.90
41722;DHT22;27407;24.142;-110.310;2023-11-21T21:42:28;30.80;99.90
41722;DHT22;27407;24.142;-110.310;2023-11-21T21:44:55;30.80;99.90
41722;DHT22;27407;24.142;-110.310;2023-11-21T21:47:21;30.60;99.90
41722;DHT22;27407;24.142;-110.310;2023-11-21T21:49:48;30.50;99.90
41722;DHT22;27407;24.142;-110.310;2023-11-21T21:52:15;30.30;99.90
41722;DHT22;27407;24.142;-110.310;2023-11-21T21:54:42;30.30;99.90
41722;DHT22;27407;24.142;-110.310;2023-11-21T21:57:09;30.80;99.90
41722;DHT22;27407;24.142;-110.310;2023-11-21T21:59:36;30.30;99.90
41722;DHT22;27407;24.142;-110.310;2023-11-21T22:02:03;30.30;99.90
41722;DHT22;27407;24.142;-110.310;2023-11-21T22:04:32;30.20;99.90
41722;DHT22;27407;24.142;-110.310;2023-11-21T22:07:00;30.20;99.90
41722;DHT22;27407;24.142;-110.310;2023-11-21T22:09:26;30.10;99.90
41722;DHT22;27407;24.142;-110.310;2023-11-21T22:11:53;30.30;99.90
41722;DHT22;27407;24.142;-110.310;2023-11-21T22:14:19;30.00;99.90
41722;DHT22;27407;24.142;-110.310;2023-11-21T22:16:46;29.70;99.90
41722;DHT22;27407;24.142;-110.310;2023-11-21T22:19:13;29.60;99.90
41722;DHT22;27407;24.142;-110.310;2023-11-21T22:21:40;29.60;99.90
41722;DHT22;27407;24.142;-110.310;2023-11-21T22:24:07;29.60;99.90
41722;DHT22;27407;24.142;-110.310;2023-11-21T22:26:34;29.90;99.90
41722;DHT22;27407;24.142;-110.310;2023-11-21T22:29:02;30.00;99.90
41722;DHT22;27407;24.142;-110.310;2023-11-21T22:31:30;29.70;99.90
41722;DHT22;27407;24.142;-110.310;2023-11-21T22:33:56;30.00;99.90
41722;DHT22;27407;24.142;-110.310;2023-11-21T22:36:23;29.50;99.90
41722;DHT22;27407;24.142;-110.310;2023-11-21T22:38:50;29.60;99.90
41722;DHT22;27407;24.142;-110.310;2023-11-21T22:41:24;29.50;99.90
41722;DHT22;27407;24.142;-110.310;2023-11-21T22:43:51;29.40;99.90
41722;DHT22;27407;24.142;-110.310;2023-11-21T22:46:18;29.40;99.90
41722;DHT22;27407;24.142;-110.310;2023-11-21T22:48:44;29.20;99.90
41722;DHT22;27407;24.142;-110.310;2023-11-21T22:51:11;29.20;99.90
41722;DHT22;27407;24.142;-110.310;2023-11-21T22:53:38;29.00;99.90
41722;DHT22;27407;24.142;-110.310;2023-11-21T22:56:05;28.70;99.90
41722;DHT22;27407;24.142;-110.310;2023-11-21T22:58:34;28.50;99.90
41722;DHT22;27407;24.142;-110.310;2023-11-21T23:01:00;28.30;99.90
41722;DHT22;27407;24.142;-110.310;2023-11-21T23:03:28;28.20;99.90
41722;DHT22;27407;24.142;-110.310;2023-11-21T23:05:56;28.20;99.90
41722;DHT22;27407;24.142;-110.310;2023-11-21T23:08:22;28.00;99.90
41722;DHT22;27407;24.142;-110.310;2023-11-21T23:10:49;27.90;99.90
41722;DHT22;27407;24.142;-110.310;2023-11-21T23:13:16;27.90;99.90
41722;DHT22;27407;24.142;-110.310;2023-11-21T23:15:45;27.60;99.90
41722;DHT22;27407;24.142;-110.310;2023-11-21T23:18:18;27.70;99.90
41722;DHT22;27407;24.142;-110.310;2023-11-21T23:20:55;27.80;99.90
41722;DHT22;27407;24.142;-110.310;2023-11-21T23:23:22;27.70;99.90
41722;DHT22;27407;24.142;-110.310;2023-11-21T23:25:58;27.70;99.90
41722;DHT22;27407;24.142;-110.310;2023-11-21T23:28:27;27.80;99.90
41722;DHT22;27407;24.142;-110.310;2023-11-21T23:30:53;27.60;99.90
41722;DHT22;27407;24.142;-110.310;2023-11-21T23:33:20;27.70;99.90
41722;DHT22;27407;24.142;-110.310;2023-11-21T23:35:47;27.50;99.90
41722;DHT22;27407;24.142;-110.310;2023-11-21T23:38:14;27.60;99.90
41722;DHT22;27407;24.142;-110.310;2023-11-21T23:40:40;27.50;99.90
41722;DHT22;27407;24.142;-110.310;2023-11-21T23:43:07;27.50;99.90